createdAt,value
2023-05-15T00:00:13.083Z,12.10
2023-05-15T00:02:58.519Z,12.00
2023-05-15T00:05:44.105Z,12.10
2023-05-15T00:08:29.648Z,12.30
2023-05-15T00:11:15.337Z,13.20
2023-05-15T00:14:00.810Z,12.20
2023-05-15T00:16:46.420Z,12.10
2023-05-15T00:19:32.039Z,12.80
2023-05-15T00:22:17.624Z,13.50
2023-05-15T00:25:03.349Z,12.40
2023-05-15T00:27:48.910Z,12.40
2023-05-15T00:30:34.398Z,12.40
2023-05-15T00:33:20.119Z,12.20
2023-05-15T00:36:05.616Z,12.10
2023-05-15T00:38:50.962Z,12.00
2023-05-15T00:41:37.446Z,11.80
2023-05-15T00:44:23.620Z,11.90
2023-05-15T00:47:10.869Z,12.00
2023-05-15T00:49:56.907Z,12.10
2023-05-15T00:52:43.491Z,12.10
2023-05-15T00:55:29.581Z,12.10
2023-05-15T00:58:15.470Z,13.00
2023-05-15T01:01:01.163Z,12.10
2023-05-15T01:03:47.167Z,12.00
2023-05-15T01:06:32.526Z,12.00
2023-05-15T01:09:19.247Z,11.90
2023-05-15T01:12:07.518Z,11.80
2023-05-15T01:14:52.793Z,11.80
2023-05-15T01:17:38.251Z,11.70
2023-05-15T01:20:23.508Z,11.70
2023-05-15T01:23:40.302Z,11.40
2023-05-15T01:26:47.454Z,11.40
2023-05-15T01:29:37.534Z,11.40
2023-05-15T01:32:54.365Z,11.90
2023-05-15T01:35:39.841Z,11.20
2023-05-15T01:38:38.567Z,12.30
2023-05-15T01:41:48.206Z,11.20
2023-05-15T01:44:43.096Z,11.40
2023-05-15T01:47:38.075Z,11.60
2023-05-15T01:50:23.752Z,11.70
2023-05-15T01:53:10.513Z,11.50
2023-05-15T01:55:56.916Z,11.40
2023-05-15T01:58:43.978Z,11.40
2023-05-15T02:01:30.935Z,11.50
2023-05-15T02:04:18.672Z,12.30
2023-05-15T02:07:04.600Z,11.70
2023-05-15T02:09:51.979Z,11.30
2023-05-15T02:12:38.379Z,11.70
2023-05-15T02:15:25.012Z,11.70
2023-05-15T02:18:11.290Z,11.70
2023-05-15T02:20:56.918Z,12.00
2023-05-15T02:23:42.645Z,11.60
2023-05-15T02:26:43.276Z,11.60
2023-05-15T02:29:57.584Z,11.60
2023-05-15T02:33:07.467Z,11.50
2023-05-15T02:36:17.710Z,11.40
2023-05-15T02:39:03.351Z,11.40
2023-05-15T02:41:50.178Z,11.40
2023-05-15T02:44:37.206Z,11.40
2023-05-15T02:47:23.876Z,11.50
2023-05-15T02:50:09.766Z,11.40
2023-05-15T02:53:05.677Z,11.50
2023-05-15T02:55:51.307Z,11.70
2023-05-15T02:58:38.569Z,11.50
2023-05-15T03:01:23.931Z,12.10
2023-05-15T03:04:09.574Z,11.70
2023-05-15T03:06:54.819Z,11.70
2023-05-15T03:09:40.971Z,11.50
2023-05-15T03:12:26.625Z,12.00
2023-05-15T03:15:12.235Z,11.30
2023-05-15T03:17:57.926Z,11.20
2023-05-15T03:20:43.664Z,11.40
2023-05-15T03:23:28.895Z,11.40
2023-05-15T03:26:14.222Z,11.80
2023-05-15T03:29:01.325Z,11.40
2023-05-15T03:31:46.718Z,11.30
2023-05-15T03:34:32.389Z,12.00
2023-05-15T03:37:18.028Z,11.30
2023-05-15T03:40:04.835Z,11.20
2023-05-15T03:42:53.419Z,11.20
2023-05-15T03:45:39.461Z,11.10
2023-05-15T03:48:24.904Z,11.20
2023-05-15T03:51:10.831Z,11.20
2023-05-15T03:53:56.322Z,11.10
2023-05-15T03:56:41.694Z,11.20
2023-05-15T03:59:27.782Z,11.20
2023-05-15T04:02:13.079Z,11.10
2023-05-15T04:04:58.577Z,11.00
2023-05-15T04:07:44.093Z,10.90
2023-05-15T04:10:29.768Z,10.80
2023-05-15T04:13:14.894Z,10.90
2023-05-15T04:16:01.150Z,11.10
2023-05-15T04:18:46.472Z,11.60
2023-05-15T04:21:31.890Z,11.20
2023-05-15T04:24:17.400Z,11.30
2023-05-15T04:27:02.820Z,11.40
2023-05-15T04:29:48.456Z,11.50
2023-05-15T04:32:34.446Z,12.60
2023-05-15T04:35:20.094Z,11.60
2023-05-15T04:38:05.653Z,11.80
2023-05-15T04:40:51.311Z,11.70
2023-05-15T04:43:37.084Z,12.10
2023-05-15T04:46:23.180Z,11.70
2023-05-15T04:49:08.856Z,11.50
2023-05-15T04:51:54.378Z,12.10
2023-05-15T04:54:39.884Z,11.90
2023-05-15T04:57:25.998Z,13.10
2023-05-15T05:00:12.360Z,12.20
2023-05-15T05:02:58.136Z,12.40
2023-05-15T05:05:43.623Z,12.50
2023-05-15T05:08:29.013Z,13.20
2023-05-15T05:11:14.500Z,13.10
2023-05-15T05:14:00.188Z,13.10
2023-05-15T05:16:45.770Z,12.90
2023-05-15T05:19:31.113Z,13.00
2023-05-15T05:22:16.387Z,13.00
2023-05-15T05:25:02.155Z,13.20
2023-05-15T05:27:47.683Z,13.20
2023-05-15T05:30:33.125Z,13.10
2023-05-15T05:33:18.828Z,13.20
2023-05-15T05:36:05.236Z,13.10
2023-05-15T05:38:50.689Z,13.20
2023-05-15T05:41:36.053Z,13.60
2023-05-15T05:44:21.483Z,14.00
2023-05-15T05:47:07.265Z,13.10
2023-05-15T05:49:52.762Z,13.40
2023-05-15T05:52:38.180Z,13.20
2023-05-15T05:55:23.805Z,13.40
2023-05-15T05:58:24.061Z,13.80
2023-05-15T06:01:11.204Z,13.50
2023-05-15T06:03:56.710Z,13.40
2023-05-15T06:06:42.034Z,13.30
2023-05-15T06:09:27.764Z,13.80
2023-05-15T06:12:13.093Z,13.40
2023-05-15T06:14:58.801Z,13.50
2023-05-15T06:17:44.284Z,14.30
2023-05-15T06:20:29.834Z,13.50
2023-05-15T06:23:15.562Z,13.60
2023-05-15T06:26:01.766Z,13.60
2023-05-15T06:28:47.259Z,13.50
2023-05-15T06:31:32.904Z,13.50
2023-05-15T06:34:18.420Z,13.60
2023-05-15T06:37:03.821Z,13.70
2023-05-15T06:39:49.068Z,13.60
2023-05-15T06:42:34.784Z,14.80
2023-05-15T06:45:20.364Z,13.60
2023-05-15T06:48:05.892Z,13.40
2023-05-15T06:50:51.598Z,13.60
2023-05-15T06:53:37.385Z,13.40
2023-05-15T06:56:22.833Z,13.60
2023-05-15T06:59:08.282Z,13.80
2023-05-15T07:01:54.053Z,13.80
2023-05-15T07:04:39.708Z,13.70
2023-05-15T07:07:25.135Z,14.00
2023-05-15T07:10:11.103Z,13.70
2023-05-15T07:12:56.558Z,14.00
2023-05-15T07:15:42.100Z,14.00
2023-05-15T07:18:27.693Z,13.90
2023-05-15T07:21:13.339Z,14.00
2023-05-15T07:23:58.764Z,14.30
2023-05-15T07:26:57.381Z,14.50
2023-05-15T07:29:44.110Z,14.80
2023-05-15T07:32:30.543Z,15.30
2023-05-15T07:35:16.261Z,16.00
2023-05-15T07:38:01.909Z,16.10
2023-05-15T07:40:47.640Z,15.40
2023-05-15T07:43:33.246Z,15.30
2023-05-15T07:46:18.788Z,15.30
2023-05-15T07:49:04.390Z,16.00
2023-05-15T07:51:49.858Z,15.70
2023-05-15T07:54:35.168Z,15.70
2023-05-15T07:57:20.923Z,16.30
2023-05-15T08:00:12.688Z,16.60
2023-05-15T08:02:59.669Z,16.40
2023-05-15T08:05:45.240Z,17.10
2023-05-15T08:08:30.949Z,17.60
2023-05-15T08:11:16.416Z,17.90
2023-05-15T08:14:01.715Z,17.60
2023-05-15T08:16:49.356Z,18.10
2023-05-15T08:19:34.632Z,18.70
2023-05-15T08:22:20.242Z,19.30
2023-05-15T08:25:07.056Z,18.90
2023-05-15T08:27:52.586Z,18.40
2023-05-15T08:30:38.438Z,17.90
2023-05-15T08:33:23.626Z,17.00
2023-05-15T08:36:09.286Z,16.60
2023-05-15T08:38:54.821Z,16.60
2023-05-15T08:41:52.923Z,16.20
2023-05-15T08:44:39.428Z,16.40
2023-05-15T08:47:27.955Z,16.20
2023-05-15T08:50:15.587Z,16.80
2023-05-15T08:53:02.076Z,17.20
2023-05-15T08:55:47.452Z,17.20
2023-05-15T08:58:33.538Z,17.60
2023-05-15T09:01:19.194Z,17.00
2023-05-15T09:04:05.023Z,16.30
2023-05-15T09:06:50.966Z,16.60
2023-05-15T09:09:37.322Z,16.90
2023-05-15T09:12:25.444Z,17.10
2023-05-15T09:15:17.254Z,17.30
2023-05-15T09:18:02.702Z,17.80
2023-05-15T09:20:47.732Z,18.60
2023-05-15T09:23:33.329Z,19.70
2023-05-15T09:26:19.071Z,20.60
2023-05-15T09:29:04.487Z,20.40
2023-05-15T09:31:50.092Z,19.00
2023-05-15T09:34:39.019Z,18.30
2023-05-15T09:37:34.703Z,17.90
2023-05-15T09:40:19.822Z,18.10
2023-05-15T09:43:05.537Z,18.20
2023-05-15T09:45:50.847Z,17.90
2023-05-15T09:48:36.570Z,17.90
2023-05-15T09:51:22.326Z,17.70
2023-05-15T09:54:15.197Z,17.60
2023-05-15T09:57:12.996Z,17.50
2023-05-15T10:00:10.318Z,17.80
2023-05-15T10:02:58.717Z,17.80
2023-05-15T10:05:44.568Z,17.90
2023-05-15T10:08:30.297Z,18.00
2023-05-15T10:11:15.984Z,18.30
2023-05-15T10:14:01.872Z,18.70
2023-05-15T10:16:47.196Z,18.90
2023-05-15T10:19:33.876Z,18.30
2023-05-15T10:22:23.812Z,18.30
2023-05-15T10:25:31.600Z,18.40
2023-05-15T10:28:18.691Z,18.50
2023-05-15T10:31:05.827Z,19.30
2023-05-15T10:33:51.992Z,19.70
2023-05-15T10:36:38.458Z,20.40
2023-05-15T10:39:26.891Z,20.80
2023-05-15T10:42:12.893Z,21.40
2023-05-15T10:45:01.051Z,21.10
2023-05-15T10:47:47.009Z,21.40
2023-05-15T10:50:32.469Z,21.10
2023-05-15T10:53:17.781Z,20.50
2023-05-15T10:56:03.065Z,20.30
2023-05-15T10:58:49.689Z,20.50
2023-05-15T11:01:37.892Z,20.40
2023-05-15T11:04:23.835Z,21.10
2023-05-15T11:07:14.535Z,20.00
2023-05-15T11:10:00.346Z,19.90
2023-05-15T11:12:59.495Z,20.20
2023-05-15T11:15:46.615Z,19.90
2023-05-15T11:18:37.838Z,20.10
2023-05-15T11:21:23.337Z,20.90
2023-05-15T11:24:11.996Z,21.10
2023-05-15T11:27:05.170Z,20.90
2023-05-15T11:30:08.825Z,20.90
2023-05-15T11:33:00.566Z,21.10
2023-05-15T11:35:57.460Z,21.90
2023-05-15T11:38:43.739Z,22.90
2023-05-15T11:41:32.026Z,23.00
2023-05-15T11:44:24.536Z,21.90
2023-05-15T11:47:11.095Z,21.30
2023-05-15T11:49:56.503Z,22.00
2023-05-15T11:52:42.631Z,22.30
2023-05-15T11:55:29.287Z,22.90
2023-05-15T11:58:17.136Z,23.70
2023-05-15T12:01:02.661Z,22.50
2023-05-15T12:03:50.068Z,22.90
2023-05-15T12:06:35.653Z,23.80
2023-05-15T12:09:22.678Z,23.20
2023-05-15T12:12:14.474Z,22.40
2023-05-15T12:15:00.772Z,21.90
2023-05-15T12:17:46.875Z,21.30
2023-05-15T12:20:35.039Z,20.60
2023-05-15T12:23:23.179Z,19.00
2023-05-15T12:26:08.811Z,18.40
2023-05-15T12:28:55.465Z,17.40
2023-05-15T12:31:40.890Z,16.70
2023-05-15T12:34:26.445Z,16.40
2023-05-15T12:37:15.059Z,15.90
2023-05-15T12:40:02.445Z,15.80
2023-05-15T12:42:54.266Z,15.60
2023-05-15T12:45:40.738Z,15.50
2023-05-15T12:48:32.169Z,15.20
2023-05-15T12:51:18.543Z,15.20
2023-05-15T12:54:03.794Z,15.20
2023-05-15T12:56:49.792Z,15.50
2023-05-15T12:59:35.778Z,15.60
2023-05-15T13:02:23.364Z,15.30
2023-05-15T13:05:09.171Z,15.50
2023-05-15T13:07:55.124Z,15.70
2023-05-15T13:10:40.391Z,15.80
2023-05-15T13:13:45.893Z,15.90
2023-05-15T13:16:31.288Z,16.70
2023-05-15T13:19:17.472Z,16.30
2023-05-15T13:22:03.354Z,16.10
2023-05-15T13:24:48.892Z,16.50
2023-05-15T13:27:34.609Z,15.90
2023-05-15T13:30:20.465Z,15.60
2023-05-15T13:33:05.666Z,15.50
2023-05-15T13:35:51.822Z,15.50
2023-05-15T13:38:37.100Z,15.60
2023-05-15T13:41:22.586Z,15.10
2023-05-15T13:44:07.955Z,15.20
2023-05-15T13:46:53.442Z,15.50
2023-05-15T13:49:39.167Z,16.20
2023-05-15T13:52:25.456Z,16.60
2023-05-15T13:55:11.229Z,15.80
2023-05-15T13:57:56.929Z,16.00
2023-05-15T14:00:43.664Z,15.80
2023-05-15T14:03:29.307Z,15.80
2023-05-15T14:06:14.869Z,15.70
2023-05-15T14:09:00.505Z,15.80
2023-05-15T14:11:45.883Z,15.10
2023-05-15T14:14:31.432Z,14.80
2023-05-15T14:17:17.015Z,15.10
2023-05-15T14:20:02.635Z,15.90
2023-05-15T14:22:48.317Z,15.40
2023-05-15T14:25:34.005Z,15.30
2023-05-15T14:28:19.340Z,15.30
2023-05-15T14:31:05.156Z,15.20
2023-05-15T14:33:52.564Z,15.80
2023-05-15T14:36:38.235Z,15.40
2023-05-15T14:39:23.616Z,15.00
2023-05-15T14:42:09.136Z,14.60
2023-05-15T14:44:54.899Z,14.40
2023-05-15T14:47:40.470Z,14.90
2023-05-15T14:50:25.965Z,14.80
2023-05-15T14:53:11.873Z,14.30
2023-05-15T14:55:58.606Z,14.90
2023-05-15T14:58:44.304Z,15.10
2023-05-15T15:01:29.601Z,15.20
2023-05-15T15:04:14.817Z,15.20
2023-05-15T15:07:03.866Z,15.30
2023-05-15T15:09:49.616Z,15.40
2023-05-15T15:12:35.086Z,15.40
2023-05-15T15:15:21.314Z,15.50
2023-05-15T15:18:07.761Z,15.50
2023-05-15T15:20:53.090Z,15.40
2023-05-15T15:23:38.810Z,15.40
2023-05-15T15:26:24.200Z,15.50
2023-05-15T15:29:09.520Z,15.50
2023-05-15T15:31:55.065Z,16.00
2023-05-15T15:34:40.612Z,15.40
2023-05-15T15:37:29.666Z,15.40
2023-05-15T15:40:15.353Z,15.30
2023-05-15T15:43:01.618Z,16.10
2023-05-15T15:45:47.062Z,15.10
2023-05-15T15:48:32.499Z,15.30
2023-05-15T15:51:18.125Z,15.40
2023-05-15T15:54:03.895Z,15.40
2023-05-15T15:56:49.295Z,15.50
2023-05-15T15:59:34.629Z,15.70
2023-05-15T16:02:21.010Z,15.80
2023-05-15T16:05:07.822Z,16.30
2023-05-15T16:07:53.279Z,15.80
2023-05-15T16:10:38.498Z,17.20
2023-05-15T16:13:24.071Z,15.80
2023-05-15T16:16:09.747Z,15.50
2023-05-15T16:18:55.183Z,15.20
2023-05-15T16:21:40.718Z,15.20
2023-05-15T16:24:26.468Z,15.10
2023-05-15T16:27:11.988Z,14.80
2023-05-15T16:29:57.554Z,14.70
2023-05-15T16:32:43.119Z,14.60
2023-05-15T16:35:28.583Z,15.40
2023-05-15T16:38:14.576Z,14.40
2023-05-15T16:41:00.268Z,14.10
2023-05-15T16:43:45.524Z,14.00
2023-05-15T16:46:31.120Z,14.50
2023-05-15T16:49:16.763Z,14.20
2023-05-15T16:52:01.924Z,14.50
2023-05-15T16:54:48.610Z,14.40
2023-05-15T16:57:37.294Z,14.20
2023-05-15T17:00:23.146Z,13.80
2023-05-15T17:03:08.649Z,13.80
2023-05-15T17:05:54.362Z,14.10
2023-05-15T17:08:39.808Z,14.90
2023-05-15T17:11:25.680Z,14.50
2023-05-15T17:14:10.861Z,14.70
2023-05-15T17:16:56.240Z,15.00
2023-05-15T17:19:41.523Z,15.00
2023-05-15T17:22:27.194Z,15.40
2023-05-15T17:25:12.926Z,16.10
2023-05-15T17:27:58.548Z,15.50
2023-05-15T17:30:44.744Z,15.50
2023-05-15T17:33:30.063Z,16.10
2023-05-15T17:36:15.687Z,15.60
2023-05-15T17:39:01.473Z,15.60
2023-05-15T17:41:46.974Z,15.50
2023-05-15T17:44:32.395Z,15.60
2023-05-15T17:47:17.960Z,15.40
2023-05-15T17:50:03.491Z,15.20
2023-05-15T17:52:48.940Z,16.10
2023-05-15T17:55:35.039Z,16.10
2023-05-15T17:58:21.272Z,15.00
2023-05-15T18:01:07.199Z,14.80
2023-05-15T18:03:52.551Z,14.70
2023-05-15T18:06:38.380Z,14.50
2023-05-15T18:09:24.849Z,14.40
2023-05-15T18:12:10.743Z,14.20
2023-05-15T18:14:56.427Z,14.10
2023-05-15T18:17:41.768Z,14.90
2023-05-15T18:20:27.563Z,14.30
2023-05-15T18:23:12.956Z,14.50
2023-05-15T18:25:58.607Z,14.00
2023-05-15T18:28:44.105Z,14.20
2023-05-15T18:31:29.455Z,14.10
2023-05-15T18:34:15.001Z,14.50
2023-05-15T18:37:00.687Z,15.40
2023-05-15T18:39:48.003Z,14.20
2023-05-15T18:42:33.785Z,14.70
2023-05-15T18:45:21.547Z,14.10
2023-05-15T18:48:07.657Z,14.20
2023-05-15T18:50:53.627Z,14.20
2023-05-15T18:53:39.112Z,14.30
2023-05-15T18:56:25.218Z,14.10
2023-05-15T18:59:10.797Z,13.50
2023-05-15T19:01:56.495Z,13.60
2023-05-15T19:04:41.876Z,14.40
2023-05-15T19:07:30.786Z,15.00
2023-05-15T19:10:16.387Z,13.70
2023-05-15T19:13:01.744Z,13.70
2023-05-15T19:15:51.794Z,13.70
2023-05-15T19:18:37.254Z,13.80
2023-05-15T19:21:23.023Z,13.60
2023-05-15T19:24:08.707Z,13.30
2023-05-15T19:26:54.146Z,13.70
2023-05-15T19:29:40.929Z,15.60
2023-05-15T19:32:27.683Z,13.60
2023-05-15T19:35:13.456Z,13.70
2023-05-15T19:37:59.090Z,13.70
2023-05-15T19:40:45.568Z,13.70
2023-05-15T19:43:35.806Z,13.70
2023-05-15T19:46:21.335Z,13.60
2023-05-15T19:49:06.564Z,14.40
2023-05-15T19:51:52.081Z,14.20
2023-05-15T19:54:37.533Z,13.70
2023-05-15T19:57:23.079Z,13.50
2023-05-15T20:00:10.392Z,13.50
2023-05-15T20:02:55.887Z,13.40
2023-05-15T20:05:41.635Z,13.50
2023-05-15T20:08:27.757Z,13.40
2023-05-15T20:11:13.378Z,13.20
2023-05-15T20:13:58.985Z,13.40
2023-05-15T20:16:44.771Z,13.40
2023-05-15T20:19:31.557Z,13.00
2023-05-15T20:22:17.484Z,13.00
2023-05-15T20:25:03.487Z,12.90
2023-05-15T20:27:49.019Z,13.00
2023-05-15T20:30:34.634Z,12.90
2023-05-15T20:33:20.097Z,12.90
2023-05-15T20:36:06.136Z,12.90
2023-05-15T20:38:52.828Z,12.90
2023-05-15T20:41:38.378Z,13.70
2023-05-15T20:44:23.614Z,12.90
2023-05-15T20:47:09.065Z,12.80
2023-05-15T20:49:54.803Z,13.10
2023-05-15T20:52:40.119Z,13.70
2023-05-15T20:55:25.555Z,12.80
2023-05-15T20:58:10.823Z,12.90
2023-05-15T21:00:58.227Z,12.70
2023-05-15T21:03:44.092Z,12.70
2023-05-15T21:06:29.764Z,12.70
2023-05-15T21:09:16.668Z,12.70
2023-05-15T21:12:04.161Z,12.60
2023-05-15T21:14:49.549Z,12.90
2023-05-15T21:17:34.897Z,12.60
2023-05-15T21:20:20.586Z,12.60
2023-05-15T21:23:05.990Z,12.50
2023-05-15T21:25:51.440Z,12.60
2023-05-15T21:28:37.164Z,12.70
2023-05-15T21:31:22.514Z,12.80
2023-05-15T21:34:08.186Z,12.90
2023-05-15T21:36:53.768Z,12.80
2023-05-15T21:39:39.208Z,12.90
2023-05-15T21:42:24.559Z,12.70
2023-05-15T21:45:10.331Z,12.80
2023-05-15T21:47:56.367Z,12.70
2023-05-15T21:50:41.941Z,12.90
2023-05-15T21:53:27.696Z,12.70
2023-05-15T21:56:12.951Z,12.70
2023-05-15T21:58:58.513Z,12.80
2023-05-15T22:01:44.004Z,12.60
2023-05-15T22:04:30.411Z,12.60
2023-05-15T22:07:16.583Z,12.60
2023-05-15T22:10:03.494Z,12.60
2023-05-15T22:12:49.561Z,12.50
2023-05-15T22:15:35.364Z,13.00
2023-05-15T22:18:21.313Z,12.50
2023-05-15T22:21:06.883Z,12.60
2023-05-15T22:23:52.402Z,12.90
2023-05-15T22:26:38.038Z,12.70
2023-05-15T22:29:23.627Z,13.10
2023-05-15T22:32:09.262Z,12.60
2023-05-15T22:34:55.819Z,13.10
2023-05-15T22:37:42.148Z,13.20
2023-05-15T22:40:28.058Z,12.40
2023-05-15T22:43:13.868Z,12.90
2023-05-15T22:45:59.229Z,12.90
2023-05-15T22:48:44.665Z,12.40
2023-05-15T22:51:31.444Z,12.30
2023-05-15T22:54:21.575Z,12.20
2023-05-15T22:57:08.765Z,12.20
2023-05-15T22:59:55.264Z,12.20
2023-05-15T23:02:42.640Z,12.90
2023-05-15T23:05:29.493Z,12.10
2023-05-15T23:08:14.743Z,12.20
2023-05-15T23:11:01.052Z,12.10
2023-05-15T23:13:46.353Z,12.20
2023-05-15T23:16:32.187Z,12.30
2023-05-15T23:19:17.537Z,12.40
2023-05-15T23:22:03.599Z,12.40
2023-05-15T23:24:49.098Z,12.50
2023-05-15T23:27:34.727Z,12.50
2023-05-15T23:30:20.258Z,12.60
2023-05-15T23:33:05.507Z,12.60
2023-05-15T23:35:50.790Z,12.60
2023-05-15T23:38:36.213Z,12.70
2023-05-15T23:41:26.327Z,12.70
2023-05-15T23:44:11.815Z,12.60
2023-05-15T23:46:57.434Z,12.70
2023-05-15T23:49:43.354Z,12.70
2023-05-15T23:52:29.065Z,12.70
2023-05-15T23:55:14.447Z,12.60
2023-05-15T23:57:59.747Z,12.70
